Tiempo atmosférico en la estación meteorológica de Alconchel, Badajoz (170 m.)



Fecha
DESCASC
Temp. máxima en grados centígrados (hora)
DESCASC
Temp. mínima en grados centígrados (hora)
DESCASC
Temp. media en grados centígrados
DESCASC
Racha de viento máxima en m/sg (hora)
DESCASC
Velocidad máxima media en intervalos de 10 minutos(hora)
DESCASC
Precipitaciones diarias en mm
DESCASC
Precipitaciones de 00:00 a 06:00 en mm
DESCASC
Precipitaciones de 06:00 a 12:00 en mm
DESCASC
Precipitaciones de 12:00 a 18:00 en mm
DESCASC
Precipitaciones de 18:00 a 24:00 en mm
DESCASC
14-12-2019 15.6 (15:20) 11.4 (08:40) 13.5 5.83 (15:10) 4.17 (15:10) 0 0 0 0 0
13-12-2019 16 (14:10) 12.5 (22:50) 14.3 11.11 (14:40) 7.22 (15:40) 0.2 0 0 0.2 0
12-12-2019 14.6 (13:00) 5.9 (01:40) 10.3 13.61 (13:40) 8.61 (13:40) 0 0 0 0 0
11-12-2019 14.6 (15:10) 4.7 (00:00) 9.7 10.56 (13:50) 7.22 (14:00) 0.2 0 0.2 0 0
10-12-2019 12 (16:40) 4.4 (00:00) 8.2 6.11 (13:40) 4.17 (13:40) 0.2 0 0.2 0 0
09-12-2019 17 (16:00) 8.7 (00:00) 12.8 5.56 (06:50) 3.61 (06:50) 0.2 0.2 0 0 0
08-12-2019 14.1 (16:50) 4.3 (00:00) 9.2 3.33 (13:00) 2.22 (13:00) 0 0 0 0 0
07-12-2019 15.8 (15:20) 6.2 (00:00) 11 7.5 (08:20) 5 (08:20) 0 0 0 0 0
06-12-2019 16.3 (16:30) 7 (00:00) 11.6 9.72 (15:00) 6.39 (15:20) 0 0 0 0 0
05-12-2019 16.1 (15:30) 7.6 (00:00) 11.9 11.39 (17:00) 6.39 (10:10) 0 0 0 0 0
04-12-2019 13.2 (17:00) 4.6 (00:00) 8.9 5.83 (15:50) 3.89 (15:50) 0 0 0 0 0
03-12-2019 14.5 (15:50) 7.1 (00:00) 10.8 9.44 (09:40) 6.11 (14:30) 0 0 0 0 0
02-12-2019 14.5 (15:50) 7.8 (00:00) 11.2 14.17 (15:30) 8.89 (15:30) 0.2 0 0.2 0 0
01-12-2019 13.9 (12:10) 9.4 (00:00) 11.6 11.11 (22:10) 6.67 (15:50) 4.6 0 0.4 2.2 2
30-11-2019 17.5 (14:40) 12 (00:00) 14.8 10.28 (16:30) 7.22 (16:30) 0.2 0 0 0 0.2
29-11-2019 18.1 (14:00) 12.6 (00:00) 15.4 6.11 (13:50) 4.44 (13:50) 0 0 0 0 0
28-11-2019 16.8 (16:20) 11.6 (00:00) 14.2 8.33 (13:00) 5.83 (13:00) 0 0 0 0 0
27-11-2019 17.9 (15:20) 12.2 (00:00) 15 10.28 (01:00) 5.83 (01:00) 1.4 0.2 1.2 0 0
26-11-2019 18.7 (16:10) 13.9 (00:00) 16.3 12.22 (16:20) 8.06 (13:50) 5 0.2 0.2 3 1.6
25-11-2019 19.7 (15:00) 12.6 (00:00) 16.2 9.72 (15:00) 6.39 (04:00) 0.8 0.2 0.6 0 0
24-11-2019 16 (14:40) 5.4 (00:00) 10.7 10 (22:30) 7.22 (22:30) 0 0 0 0 0
23-11-2019 15.8 (14:30) 8.8 (00:00) 12.3 18.33 (01:00) 11.11 (02:00) 0 0 0 0 0
22-11-2019 17.2 (16:10) 11 (00:00) 14.1 18.06 (10:00) 11.67 (10:10) 23.6 3.2 5 15.4 0
21-11-2019 16.2 (16:00) 10.9 (00:00) 13.6 6.67 (07:50) 4.44 (12:50) 0.8 0 0.6 0.2 0
20-11-2019 15.9 (16:20) 8.1 (00:00) 12 9.72 (10:20) 6.67 (08:20) 9.3 1.2 7.8 0.3 0
19-11-2019 12.2 (16:30) 4.6 (00:00) 8.4 3.61 (13:20) 2.5 (12:50) 0 0 0 0 0
18-11-2019 15.3 (16:20) 6.5 (00:00) 10.9 9.72 (01:40) 5.56 (01:40) 0 0 0 0 0
17-11-2019 15.7 (14:50) 7.1 (00:00) 11.4 10.56 (14:10) 7.22 (14:10) 6 0.4 0.2 2 3.4
16-11-2019 14.6 (15:50) 1.9 (00:00) 8.3 9.44 (16:50) 4.72 (17:50) 0 0 0 0 0
15-11-2019 13 (15:10) 6.2 (00:00) 9.6 13.06 (16:30) 8.06 (10:50) 0 0 0 0 0

Gráficas

Temp. máximas Temp. mínimas Temp. medias Precipitaciones Rachas de viento máximas Velocidades máximas media en intervalos de 10 minutos

Datos horarios

Fecha y hora oficial Temperatura (ºC) Velocidad del viento (km/h) Dirección del viento Racha (km/h) Dirección de racha Precipitación (mm) Presión (hPa) Tendencia (hPa) Humedad (%)
2019-12-14 23:00:00 12.7 3 Sur 8 Sur 0 -- -- 89
2019-12-14 22:00:00 12.8 5 Sudoeste 10 Sudoeste 0 -- -- 90
2019-12-14 21:00:00 12.9 6 Sudoeste 10 Sudoeste 0 -- -- 89
2019-12-14 20:00:00 13.2 6 Sur 14 Sudoeste 0 -- -- 88
2019-12-14 19:00:00 13.8 9 Sudoeste 14 Sudoeste 0 -- -- 87
2019-12-14 18:00:00 14.6 8 Sudoeste 14 Oeste 0 -- -- 79
2019-12-14 17:00:00 15.1 10 Oeste 19 Oeste 0 -- -- 75
2019-12-14 16:00:00 15.1 11 Oeste 21 Sudoeste 0 -- -- 77
2019-12-14 15:00:00 15.1 12 Sudoeste 18 Sur 0 -- -- 80
2019-12-14 14:00:00 14.2 8 Oeste 17 Oeste 0 -- -- 83
2019-12-14 13:00:00 14 13 Oeste 18 Oeste 0 -- -- 84
2019-12-14 12:00:00 13.1 7 Sudoeste 14 Oeste 0 -- -- 90
2019-12-14 11:00:00 12.5 8 Oeste 12 Sudoeste 0 -- -- 94
2019-12-14 10:00:00 11.9 4 Sudoeste 8 Oeste 0 -- -- 95
2019-12-14 09:00:00 11.5 4 Oeste 10 Noroeste 0 -- -- 94
2019-12-14 08:00:00 11.7 5 Sur 12 Oeste 0 -- -- 94
2019-12-14 07:00:00 11.8 7 Oeste 11 Oeste 0 -- -- 93
2019-12-14 06:00:00 11.9 0 Calma 8 Oeste 0 -- -- 91
2019-12-14 05:00:00 11.9 4 Noroeste 14 Noroeste 0 -- -- 92
2019-12-14 04:00:00 12 7 Noroeste 16 Oeste 0 -- -- 90
2019-12-14 03:00:00 12 4 Noroeste 12 Noroeste 0 -- -- 93
2019-12-14 02:00:00 12 7 Oeste 13 Oeste 0 -- -- 95
2019-12-14 01:00:00 12.7 9 Oeste 16 Oeste 0 -- -- 92
2019-12-14 00:00:00 12.9 12 Noroeste 17 Noroeste 0 -- -- 91
2019-12-13 23:00:00 12.6 7 Noroeste 14 Noroeste 0 -- -- 93
2019-12-13 22:00:00 12.7 9 Noroeste 15 Noroeste 0 -- -- 91
2019-12-13 21:00:00 13.1 15 Oeste 23 Noroeste 0 -- -- 92
2019-12-13 20:00:00 13.7 9 Noroeste 21 Oeste 0 -- -- 87
2019-12-13 19:00:00 14.1 10 Noroeste 27 Oeste 0 -- -- 85
2019-12-13 18:00:00 15 11 Noroeste 26 Noroeste 0 -- -- 81
2019-12-13 17:00:00 15.4 17 Noroeste 29 Noroeste 0 -- -- 79
2019-12-13 16:00:00 15.9 18 Noroeste 40 Noroeste 0 -- -- 79
2019-12-13 15:00:00 15.6 20 Noroeste 40 Noroeste 0 -- -- 80
2019-12-13 14:00:00 15.9 21 Noroeste 33 Noroeste 0 -- -- 80
2019-12-13 13:00:00 15.1 21 Noroeste 33 Noroeste 0.2 -- -- 84
2019-12-13 12:00:00 13.9 16 Oeste 25 Noroeste 0 -- -- 92
2019-12-13 11:00:00 13.6 16 Oeste 28 Oeste 0 -- -- 90
2019-12-13 10:00:00 13.5 18 Oeste 27 Oeste 0 -- -- 89
2019-12-13 09:00:00 13 16 Noroeste 28 Oeste 0 -- -- 91
2019-12-13 08:00:00 12.6 14 Noroeste 27 Noroeste 0 -- -- 92
2019-12-13 07:00:00 13 18 Oeste 32 Noroeste 0 -- -- 91
2019-12-13 06:00:00 13.3 11 Noroeste 23 Oeste 0 -- -- 89
2019-12-13 05:00:00 13.4 16 Oeste 25 Oeste 0 -- -- 89
2019-12-13 04:00:00 13.1 15 Noroeste 30 Noroeste 0 -- -- 93
2019-12-13 03:00:00 13.6 15 Noroeste 30 Noroeste 0 -- -- 92
2019-12-13 02:00:00 13.5 16 Oeste 25 Oeste 0 -- -- 95
2019-12-13 01:00:00 13.3 15 Oeste 25 Oeste 0 -- -- 96
2019-12-13 00:00:00 13.1 16 Oeste 32 Oeste 0 -- -- 96
2019-12-12 23:00:00 12.8 16 Oeste 26 Oeste 0 -- -- 97
2019-12-12 22:00:00 12.7 17 Oeste 31 Oeste 0 -- -- 96
2019-12-12 21:00:00 12.6 22 Oeste 32 Oeste 0 -- -- 95
2019-12-12 20:00:00 12.4 21 Oeste 36 Oeste 0 -- -- 94
2019-12-12 19:00:00 12.1 20 Oeste 40 Oeste 0 -- -- 93
2019-12-12 18:00:00 13.3 28 Oeste 44 Oeste 0 -- -- 82
2019-12-12 17:00:00 13 17 Oeste 37 Oeste 0 -- -- 86
2019-12-12 16:00:00 13 28 Oeste 44 Oeste 0 -- -- 85
2019-12-12 15:00:00 13.7 23 Oeste 38 Oeste 0 -- -- 77
2019-12-12 14:00:00 13.4 22 Noroeste 49 Oeste 0 -- -- 79
2019-12-12 13:00:00 14.6 26 Oeste 38 Oeste 0 -- -- 71
2019-12-12 12:00:00 12.8 15 Noroeste 29 Oeste 0 -- -- 79
2019-12-12 11:00:00 11.1 6 Sur 15 Oeste 0 -- -- 87
2019-12-12 10:00:00 9.2 8 Oeste 19 Oeste 0 -- -- 92
2019-12-12 09:00:00 9 7 Noroeste 14 Oeste 0 -- -- 94
2019-12-12 08:00:00 6.8 7 Sur 10 Sudeste 0 -- -- 94
2019-12-12 07:00:00 7.3 3 Sur 9 Oeste 0 -- -- 94
2019-12-12 06:00:00 6.6 3 Sur 7 Sur 0 -- -- 93
2019-12-12 05:00:00 7.1 4 Oeste 10 Noroeste 0 -- -- 91
2019-12-12 04:00:00 6.7 0 Calma 9 Noroeste 0 -- -- 89
2019-12-12 03:00:00 6.5 4 Oeste 6 Oeste 0 -- -- 91
2019-12-12 02:00:00 6 5 Norte 11 Norte 0 -- -- 88
2019-12-12 01:00:00 6.5 7 Norte 10 Noroeste 0 -- -- 84
2019-12-12 00:00:00 7.2 7 Norte 17 Norte 0 -- -- 81
2019-12-11 23:00:00 8.1 12 Norte 23 Norte 0 -- -- 77
2019-12-11 22:00:00 8.3 14 Norte 20 Norte 0 -- -- 75
2019-12-11 21:00:00 8.9 13 Norte 28 Norte 0 -- -- 73
2019-12-11 20:00:00 9.8 13 Norte 24 Norte 0 -- -- 69
2019-12-11 19:00:00 10.8 14 Norte 27 Norte 0 -- -- 64
2019-12-11 18:00:00 12.4 14 Norte 27 Noroeste 0 -- -- 59
2019-12-11 17:00:00 13.9 19 Norte 30 Norte 0 -- -- 54
2019-12-11 16:00:00 14.3 22 Norte 38 Noroeste 0 -- -- 55
2019-12-11 15:00:00 14.5 19 Norte 38 Norte 0 -- -- 60
2019-12-11 14:00:00 14.1 26 Norte 38 Norte 0 -- -- 59
2019-12-11 13:00:00 13.2 21 Norte 32 Norte 0 -- -- 72
2019-12-11 12:00:00 10.1 0 Calma 8 Sudoeste 0 -- -- 100
2019-12-11 11:00:00 7.9 4 Sudoeste 8 Sudeste 0.2 -- -- 100
2019-12-11 10:00:00 6.8 9 Sur 15 Sudeste 0 -- -- 100
2019-12-11 09:00:00 6.4 6 Sur 14 Sudeste 0 -- -- 100
2019-12-11 08:00:00 6.5 4 Sur 8 Sur 0 -- -- 100
2019-12-11 07:00:00 5.3 5 Sudeste 9 Sudeste 0 -- -- 99
2019-12-11 06:00:00 5.3 3 Sur 8 Sudeste 0 -- -- 100
2019-12-11 05:00:00 5.3 3 Sur 6 Sudeste 0 -- -- 99
2019-12-11 04:00:00 5.1 5 Sudeste 6 Sudeste 0 -- -- 99
2019-12-11 03:00:00 5.3 3 Sudeste 8 Sudeste 0 -- -- 98
2019-12-11 02:00:00 5.4 3 Nordeste 6 Sudeste 0 -- -- 98
2019-12-11 01:00:00 6.4 0 Calma 5 Norte 0 -- -- 98
2019-12-11 00:00:00 6.7 4 Este 6 Este 0 -- -- 97
2019-12-10 23:00:00 7.6 3 Sudeste 5 Norte 0 -- -- 96
2019-12-10 22:00:00 7.7 3 Norte 6 Norte 0 -- -- 95
2019-12-10 21:00:00 8.5 5 Norte 14 Nordeste 0 -- -- 94
2019-12-10 20:00:00 9.1 10 Nordeste 14 Nordeste 0 -- -- 92
2019-12-10 19:00:00 9.1 8 Norte 11 Norte 0 -- -- 91
2019-12-10 18:00:00 10.8 5 Nordeste 12 Nordeste 0 -- -- 84
2019-12-10 17:00:00 11.9 8 Norte 16 Nordeste 0 -- -- 82
2019-12-10 16:00:00 11.7 11 Norte 22 Nordeste 0 -- -- 81
2019-12-10 15:00:00 11.5 14 Norte 21 Norte 0 -- -- 82
2019-12-10 14:00:00 10.9 13 Norte 22 Nordeste 0 -- -- 86
2019-12-10 13:00:00 8.6 13 Nordeste 21 Norte 0 -- -- 100
2019-12-10 12:00:00 7.4 9 Nordeste 19 Nordeste 0 -- -- 100
2019-12-10 11:00:00 6.1 13 Nordeste 21 Nordeste 0 -- -- 100
2019-12-10 10:00:00 5.4 7 Norte 15 Norte 0 -- -- 100
2019-12-10 09:00:00 4.7 5 Nordeste 15 Nordeste 0.2 -- -- 100
2019-12-10 08:00:00 5.3 6 Norte 14 Nordeste 0 -- -- 100
2019-12-10 07:00:00 5.4 4 Nordeste 10 Norte 0 -- -- 100
2019-12-10 06:00:00 5.5 4 Nordeste 11 Norte 0 -- -- 99
2019-12-10 05:00:00 5 3 Nordeste 6 Nordeste 0 -- -- 99
2019-12-10 04:00:00 5.1 0 Calma 4 Este 0 -- -- 98
2019-12-10 03:00:00 6.4 0 Calma 4 Norte 0 -- -- 96
2019-12-10 02:00:00 7.3 0 Calma 4 Noroeste 0 -- -- 96
2019-12-10 01:00:00 7.8 3 Este 5 Este 0 -- -- 95
2019-12-10 00:00:00 8.7 3 Nordeste 4 Este 0 -- -- 96
2019-12-09 23:00:00 8.9 0 Calma 5 Sur 0 -- -- 91
2019-12-09 22:00:00 10 2 Sur 8 Norte 0 -- -- 87
2019-12-09 21:00:00 11.1 5 Norte 10 Nordeste 0 -- -- 85
2019-12-09 20:00:00 11.9 9 Nordeste 13 Norte 0 -- -- 81
2019-12-09 19:00:00 13.5 6 Nordeste 9 Nordeste 0 -- -- 76
2019-12-09 18:00:00 15.9 6 Nordeste 10 Nordeste 0 -- -- 65
2019-12-09 17:00:00 16.8 6 Nordeste 13 Este 0 -- -- 63
2019-12-09 16:00:00 17 5 Nordeste 12 Norte 0 -- -- 59
2019-12-09 15:00:00 16.8 7 Nordeste 15 Norte 0 -- -- 62
2019-12-09 14:00:00 16.2 3 Nordeste 16 Norte 0 -- -- 68
2019-12-09 13:00:00 15 4 Norte 12 Norte 0 -- -- 78
2019-12-09 12:00:00 14.3 2 Oeste 8 Sur 0 -- -- 86
2019-12-09 11:00:00 13.3 4 Este 12 Este 0 -- -- 92
2019-12-09 10:00:00 12.9 6 Este 9 Este 0 -- -- 96
2019-12-09 09:00:00 12.7 3 Nordeste 9 Este 0 -- -- 98
2019-12-09 08:00:00 12.8 7 Nordeste 10 Nordeste 0 -- -- 99
2019-12-09 07:00:00 13.3 10 Nordeste 20 Nordeste 0 -- -- 99
2019-12-09 06:00:00 13.3 0 Calma 6 Sudeste 0 -- -- 99
2019-12-09 05:00:00 13.4 0 Calma 6 Noroeste 0 -- -- 99
2019-12-09 04:00:00 13.2 0 Calma 3 Sudoeste 0 -- -- 99
2019-12-09 03:00:00 13.2 0 Calma 3 Nordeste 0 -- -- 99
2019-12-09 02:00:00 13.2 3 Sudeste 4 Sur 0 -- -- 98
2019-12-09 01:00:00 13.2 2 Sudeste 5 Sudeste 0.2 -- -- 98
2019-12-09 00:00:00 13.2 0 Calma 7 Sudeste 0 -- -- 97
2019-12-08 23:00:00 13.1 5 Sur 7 Sur 0 -- -- 97
2019-12-08 22:00:00 13.3 4 Sudoeste 6 Sudoeste 0 -- -- 95
2019-12-08 21:00:00 13.7 3 Sur 5 Sur 0 -- -- 91
2019-12-08 20:00:00 13.7 4 Sur 8 Sur 0 -- -- 91
2019-12-08 19:00:00 13.8 4 Sudeste 6 Sudeste 0 -- -- 89
2019-12-08 18:00:00 13.9 4 Sudeste 6 Sur 0 -- -- 88
2019-12-08 17:00:00 14.1 3 Sur 6 Sudoeste 0 -- -- 87
2019-12-08 16:00:00 13.8 4 Sur 6 Sudoeste 0 -- -- 85
2019-12-08 15:00:00 13.5 4 Oeste 8 Oeste 0 -- -- 85
2019-12-08 14:00:00 12.3 5 Sudoeste 9 Sudoeste 0 -- -- 85
2019-12-08 13:00:00 11.3 8 Sudoeste 12 Sudoeste 0 -- -- 87
2019-12-08 12:00:00 9.7 5 Oeste 8 Oeste 0 -- -- 93
2019-12-08 11:00:00 8.2 2 Sudoeste 6 Sur 0 -- -- 98
2019-12-08 10:00:00 6.5 3 Sudeste 5 Sudeste 0 -- -- 99
2019-12-08 09:00:00 4.6 0 Calma 4 Sudeste 0 -- -- 98
2019-12-08 08:00:00 4.6 3 Norte 5 Sudeste 0 -- -- 98
2019-12-08 07:00:00 5.2 0 Calma 5 Sudeste 0 -- -- 97
2019-12-08 06:00:00 6.2 5 Sudeste 6 Sudeste 0 -- -- 97
2019-12-08 05:00:00 6.5 4 Sudeste 6 Sudeste 0 -- -- 96
2019-12-08 04:00:00 5.7 6 Sudeste 7 Sudeste 0 -- -- 96
2019-12-08 03:00:00 7.1 0 Calma 5 Nordeste 0 -- -- 96
2019-12-08 02:00:00 6.5 3 Norte 9 Sudeste 0 -- -- 94
2019-12-08 01:00:00 7.5 4 Nordeste 5 Nordeste 0 -- -- 95
2019-12-08 00:00:00 8.1 2 Sudeste 7 Sudoeste 0 -- -- 94
2019-12-07 23:00:00 9.5 3 Sudeste 6 Sudoeste 0 -- -- 90
2019-12-07 22:00:00 10.2 0 Calma 4 Sudoeste 0 -- -- 91
2019-12-07 21:00:00 10.8 0 Calma 7 Este 0 -- -- 83
2019-12-07 20:00:00 11.9 4 Este 8 Este 0 -- -- 78
2019-12-07 19:00:00 13.1 6 Nordeste 10 Nordeste 0 -- -- 73
2019-12-07 18:00:00 14.5 6 Nordeste 14 Nordeste 0 -- -- 68
2019-12-07 17:00:00 15.6 8 Nordeste 19 Nordeste 0 -- -- 62
2019-12-07 16:00:00 15.7 12 Norte 21 Norte 0 -- -- 64
2019-12-07 15:00:00 15.7 11 Nordeste 17 Nordeste 0 -- -- 64
2019-12-07 14:00:00 14.9 11 Nordeste 21 Norte 0 -- -- 71
2019-12-07 13:00:00 13.3 10 Norte 21 Norte 0 -- -- 76
2019-12-07 12:00:00 11.6 7 Norte 15 Norte 0 -- -- 80
2019-12-07 11:00:00 10.2 8 Norte 19 Nordeste 0 -- -- 83
2019-12-07 10:00:00 8.4 7 Nordeste 21 Nordeste 0 -- -- 88
2019-12-07 09:00:00 7.3 14 Nordeste 27 Nordeste 0 -- -- 91
2019-12-07 08:00:00 7.5 15 Nordeste 23 Nordeste 0 -- -- 91
2019-12-07 07:00:00 6.7 3 Nordeste 17 Nordeste 0 -- -- 94
2019-12-07 06:00:00 6.5 6 Norte 10 Norte 0 -- -- 95
2019-12-07 05:00:00 6.3 3 Sur 12 Nordeste 0 -- -- 92
2019-12-07 04:00:00 7.6 5 Nordeste 14 Norte 0 -- -- 91
2019-12-07 03:00:00 7.6 3 Sudeste 11 Norte 0 -- -- 90
2019-12-07 02:00:00 7.9 0 Calma 13 Nordeste 0 -- -- 88
2019-12-07 01:00:00 8.6 10 Nordeste 15 Nordeste 0 -- -- 88
2019-12-07 00:00:00 10.1 12 Este 23 Nordeste 0 -- -- 82
2019-12-06 23:00:00 9.9 17 Nordeste 22 Nordeste 0 -- -- 84
2019-12-06 22:00:00 10.6 9 Nordeste 14 Norte 0 -- -- 81
2019-12-06 21:00:00 11.9 8 Nordeste 12 Nordeste 0 -- -- 76
2019-12-06 20:00:00 12.1 6 Nordeste 9 Este 0 -- -- 75
2019-12-06 19:00:00 13.5 6 Nordeste 12 Este 0 -- -- 69
2019-12-06 18:00:00 15.2 7 Nordeste 29 Nordeste 0 -- -- 64
2019-12-06 17:00:00 16.1 18 Nordeste 31 Este 0 -- -- 60
2019-12-06 16:00:00 16.1 22 Nordeste 33 Nordeste 0 -- -- 61
2019-12-06 15:00:00 15.9 21 Nordeste 35 Nordeste 0 -- -- 64
2019-12-06 14:00:00 15.2 18 Nordeste 29 Nordeste 0 -- -- 68
2019-12-06 13:00:00 14.6 14 Nordeste 28 Nordeste 0 -- -- 69
2019-12-06 12:00:00 12.9 17 Nordeste 28 Nordeste 0 -- -- 75
2019-12-06 11:00:00 10.9 18 Nordeste 26 Nordeste 0 -- -- 81
2019-12-06 10:00:00 9.1 17 Nordeste 32 Nordeste 0 -- -- 86
2019-12-06 09:00:00 7.3 20 Nordeste 28 Nordeste 0 -- -- 92
2019-12-06 08:00:00 7.1 6 Norte 13 Norte 0 -- -- 91
2019-12-06 07:00:00 7.5 6 Nordeste 23 Nordeste 0 -- -- 89
2019-12-06 06:00:00 7.6 9 Norte 17 Nordeste 0 -- -- 89
2019-12-06 05:00:00 8.4 10 Nordeste 28 Nordeste 0 -- -- 86
2019-12-06 04:00:00 8.4 18 Nordeste 27 Norte 0 -- -- 87
2019-12-06 03:00:00 8.7 19 Nordeste 28 Nordeste 0 -- -- 86
2019-12-06 02:00:00 9.3 8 Nordeste 17 Este 0 -- -- 84
2019-12-06 01:00:00 10.4 13 Nordeste 24 Nordeste 0 -- -- 79
2019-12-06 00:00:00 11 14 Nordeste 25 Nordeste 0 -- -- 75
2019-12-05 23:00:00 11.9 15 Nordeste 34 Nordeste 0 -- -- 71
2019-12-05 22:00:00 12.2 20 Nordeste 30 Este 0 -- -- 71
2019-12-05 21:00:00 13 14 Nordeste 22 Este 0 -- -- 66
2019-12-05 20:00:00 13.8 9 Nordeste 21 Este 0 -- -- 63
2019-12-05 19:00:00 14.2 5 Nordeste 17 Nordeste 0 -- -- 62
2019-12-05 18:00:00 15.1 11 Nordeste 37 Este 0 -- -- 59
2019-12-05 17:00:00 15.9 23 Este 41 Este 0 -- -- 54
2019-12-05 16:00:00 16.1 20 Este 37 Este 0 -- -- 55
2019-12-05 15:00:00 15.7 15 Nordeste 33 Este 0 -- -- 57
2019-12-05 14:00:00 14.9 22 Este 34 Este 0 -- -- 60
2019-12-05 13:00:00 14.2 17 Este 33 Este 0 -- -- 63
2019-12-05 12:00:00 12.6 18 Nordeste 28 Nordeste 0 -- -- 69
2019-12-05 11:00:00 11.4 17 Nordeste 35 Nordeste 0 -- -- 71
2019-12-05 10:00:00 10.1 20 Nordeste 32 Este 0 -- -- 74
2019-12-05 09:00:00 8.6 15 Nordeste 28 Nordeste 0 -- -- 80
2019-12-05 08:00:00 7.6 12 Nordeste 24 Nordeste 0 -- -- 86
2019-12-05 07:00:00 8.2 17 Nordeste 27 Nordeste 0 -- -- 84
2019-12-05 06:00:00 8.5 18 Nordeste 27 Nordeste 0 -- -- 84
2019-12-05 05:00:00 9 16 Nordeste 27 Nordeste 0 -- -- 84
2019-12-05 04:00:00 9 3 Nordeste 10 Norte 0 -- -- 84
2019-12-05 03:00:00 10 4 Nordeste 12 Nordeste 0 -- -- 81
2019-12-05 02:00:00 10.4 7 Nordeste 10 Nordeste 0 -- -- 82
2019-12-05 01:00:00 10.7 6 Norte 16 Norte 0 -- -- 82
2019-12-05 00:00:00 10.9 12 Norte 19 Nordeste 0 -- -- 81
2019-12-04 23:00:00 10.3 5 Norte 9 Nordeste 0 -- -- 84
2019-12-04 22:00:00 9.5 3 Norte 4 Norte 0 -- -- 88
2019-12-04 21:00:00 9 3 Este 6 Este 0 -- -- 87
2019-12-04 20:00:00 9.6 0 Calma 7 Norte 0 -- -- 83
2019-12-04 19:00:00 10.7 5 Nordeste 15 Nordeste 0 -- -- 78
2019-12-04 18:00:00 12.2 9 Nordeste 20 Nordeste 0 -- -- 71
2019-12-04 17:00:00 13.2 8 Nordeste 17 Nordeste 0 -- -- 67
2019-12-04 16:00:00 12.9 12 Norte 21 Norte 0 -- -- 68
2019-12-04 15:00:00 12.4 8 Norte 15 Norte 0 -- -- 70
2019-12-04 14:00:00 11.5 5 Norte 11 Oeste 0 -- -- 79
2019-12-04 13:00:00 10.2 3 Sur 8 Sur 0 -- -- 87
2019-12-04 12:00:00 8.7 0 Calma 8 Sur 0 -- -- 90
2019-12-04 11:00:00 8.2 5 Sur 10 Sur 0 -- -- 92
2019-12-04 10:00:00 6.8 3 Sudeste 13 Este 0 -- -- 95
2019-12-04 09:00:00 5 5 Este 7 Este 0 -- -- 97
2019-12-04 08:00:00 4.9 0 Calma 8 Nordeste 0 -- -- 96
2019-12-04 07:00:00 5.6 0 Calma 6 Este 0 -- -- 94
2019-12-04 06:00:00 6.1 0 Calma 6 Noroeste 0 -- -- 95
2019-12-04 05:00:00 5.4 4 Norte 5 Noroeste 0 -- -- 95
2019-12-04 04:00:00 5.6 2 Sudeste 14 Nordeste 0 -- -- 93
2019-12-04 03:00:00 6.4 3 Nordeste 5 Nordeste 0 -- -- 90
2019-12-04 02:00:00 6 0 Calma 6 Este 0 -- -- 91
2019-12-04 01:00:00 6.8 0 Calma 6 Este 0 -- -- 87
2019-12-04 00:00:00 8.1 0 Calma 8 Norte 0 -- -- 83
2019-12-03 23:00:00 8.2 5 Nordeste 10 Nordeste 0 -- -- 83
2019-12-03 22:00:00 9 3 Norte 15 Nordeste 0 -- -- 80
2019-12-03 21:00:00 9.3 11 Norte 14 Norte 0 -- -- 81
2019-12-03 20:00:00 9.6 10 Norte 14 Nordeste 0 -- -- 81
2019-12-03 19:00:00 11 12 Nordeste 18 Nordeste 0 -- -- 73
2019-12-03 18:00:00 13.1 14 Nordeste 27 Norte 0 -- -- 65
2019-12-03 17:00:00 14.2 15 Nordeste 30 Nordeste 0 -- -- 61
2019-12-03 16:00:00 14.5 15 Nordeste 31 Nordeste 0 -- -- 62
2019-12-03 15:00:00 13.9 18 Nordeste 33 Nordeste 0 -- -- 64
2019-12-03 14:00:00 13.7 20 Nordeste 34 Nordeste 0 -- -- 64
2019-12-03 13:00:00 13.1 21 Nordeste 32 Norte 0 -- -- 65
2019-12-03 12:00:00 11.7 16 Nordeste 28 Nordeste 0 -- -- 67
2019-12-03 11:00:00 10 13 Nordeste 28 Nordeste 0 -- -- 72
2019-12-03 10:00:00 8.7 16 Nordeste 34 Nordeste 0 -- -- 74
2019-12-03 09:00:00 7.4 15 Nordeste 31 Nordeste 0 -- -- 79
2019-12-03 08:00:00 7.2 13 Nordeste 27 Nordeste 0 -- -- 81
2019-12-03 07:00:00 7.4 21 Nordeste 28 Nordeste 0 -- -- 81
2019-12-03 06:00:00 8.3 15 Nordeste 29 Nordeste 0 -- -- 77
2019-12-03 05:00:00 8.6 15 Nordeste 29 Nordeste 0 -- -- 77
2019-12-03 04:00:00 8.8 12 Nordeste 26 Norte 0 -- -- 78
2019-12-03 03:00:00 8.9 10 Nordeste 27 Nordeste 0 -- -- 79
2019-12-03 02:00:00 9.2 17 Nordeste 24 Nordeste 0 -- -- 80
2019-12-03 01:00:00 9.2 11 Nordeste 18 Norte 0 -- -- 81
2019-12-03 00:00:00 10.3 9 Norte 23 Nordeste 0 -- -- 77
2019-12-02 23:00:00 11.8 8 Nordeste 25 Este 0 -- -- 70
2019-12-02 22:00:00 12.4 19 Este 41 Este 0 -- -- 68
2019-12-02 21:00:00 12.6 21 Nordeste 39 Este 0 -- -- 67
2019-12-02 20:00:00 12.6 22 Este 41 Este 0 -- -- 68
2019-12-02 19:00:00 13.5 21 Nordeste 45 Este 0 -- -- 62
2019-12-02 18:00:00 13.9 22 Nordeste 44 Este 0 -- -- 61
2019-12-02 17:00:00 14 26 Este 50 Este 0 -- -- 62
2019-12-02 16:00:00 14.2 28 Este 51 Nordeste 0 -- -- 64
2019-12-02 15:00:00 13.9 25 Nordeste 41 Este 0 -- -- 67
2019-12-02 14:00:00 13.5 24 Este 45 Nordeste 0 -- -- 69
2019-12-02 13:00:00 13.1 21 Nordeste 47 Este 0 -- -- 71
2019-12-02 12:00:00 13.1 24 Nordeste 45 Este 0.2 -- -- 72
2019-12-02 11:00:00 11.3 15 Nordeste 29 Nordeste 0 -- -- 81
2019-12-02 10:00:00 10 19 Nordeste 30 Nordeste 0 -- -- 88
2019-12-02 09:00:00 8.7 17 Nordeste 28 Nordeste 0 -- -- 93
2019-12-02 08:00:00 8.7 8 Norte 21 Nordeste 0 -- -- 93
2019-12-02 07:00:00 8.8 16 Nordeste 26 Nordeste 0 -- -- 92
2019-12-02 06:00:00 8.5 17 Nordeste 26 Nordeste 0 -- -- 93
2019-12-02 05:00:00 7.8 10 Nordeste 17 Nordeste 0 -- -- 97
2019-12-02 04:00:00 8.1 0 Calma 14 Nordeste 0 -- -- 97
2019-12-02 03:00:00 8.5 5 Nordeste 16 Norte 0 -- -- 97
2019-12-02 02:00:00 8.4 7 Norte 11 Norte 0 -- -- 97
2019-12-02 01:00:00 8.9 7 Norte 13 Norte 0 -- -- 95
2019-12-02 00:00:00 9.4 9 Norte 22 Norte 0 -- -- 94
2019-12-01 23:00:00 9.9 13 Norte 40 Nordeste 0 -- -- 94
2019-12-01 22:00:00 11.1 19 Nordeste 33 Norte 0 -- -- 95
2019-12-01 21:00:00 11.3 10 Norte 22 Noroeste 0.2 -- -- 96
2019-12-01 20:00:00 11.1 7 Noroeste 22 Noroeste 1.6 -- -- 96
2019-12-01 19:00:00 11.7 19 Noroeste 36 Noroeste 0.2 -- -- 89
2019-12-01 18:00:00 12.6 14 Noroeste 29 Noroeste 0 -- -- 84
2019-12-01 17:00:00 13 22 Noroeste 37 Oeste 0.6 -- -- 86
2019-12-01 16:00:00 13.9 17 Noroeste 38 Oeste 0.2 -- -- 80
2019-12-01 15:00:00 13.7 21 Oeste 32 Oeste 1.2 -- -- 78
2019-12-01 14:00:00 13.9 11 Oeste 30 Noroeste 0.2 -- -- 79
2019-12-01 13:00:00 13.3 14 Oeste 27 Oeste 0 -- -- 86
2019-12-01 12:00:00 13.5 15 Oeste 31 Oeste 0 -- -- 86
2019-12-01 11:00:00 12.4 16 Oeste 34 Sudoeste 0 -- -- 92
2019-12-01 10:00:00 11.8 22 Sudoeste 33 Sudoeste 0.2 -- -- 95
2019-12-01 09:00:00 11.7 17 Sudoeste 25 Sudoeste 0 -- -- 94
2019-12-01 08:00:00 11.6 14 Sudoeste 28 Oeste 0 -- -- 93
2019-12-01 07:00:00 11.8 17 Sudoeste 27 Oeste 0.2 -- -- 94
2019-12-01 06:00:00 11.9 19 Oeste 37 Sudoeste 0 -- -- 91
2019-12-01 05:00:00 11.4 13 Sudoeste 19 Sudoeste 0 -- -- 98
2019-12-01 04:00:00 11.5 9 Oeste 15 Oeste 0 -- -- 97
2019-12-01 03:00:00 11.9 7 Sudoeste 18 Sudoeste 0 -- -- 97
2019-12-01 02:00:00 11.9 8 Sudoeste 16 Oeste 0 -- -- 98
2019-12-01 01:00:00 11.8 6 Oeste 19 Oeste 0 -- -- 98
2019-12-01 00:00:00 12 8 Oeste 19 Oeste 0 -- -- 97
2019-11-30 23:00:00 12.7 13 Oeste 21 Oeste 0 -- -- 95
2019-11-30 22:00:00 13.2 8 Oeste 14 Oeste 0 -- -- 93
2019-11-30 21:00:00 13.5 7 Oeste 18 Oeste 0 -- -- 91
2019-11-30 20:00:00 13.8 11 Noroeste 37 Oeste 0 -- -- 90
2019-11-30 19:00:00 14.7 21 Oeste 33 Sudoeste 0.2 -- -- 94
2019-11-30 18:00:00 15.2 21 Sudoeste 33 Sudoeste 0 -- -- 91
2019-11-30 17:00:00 15.8 11 Oeste 37 Sudoeste 0 -- -- 87
2019-11-30 16:00:00 17.1 21 Sudoeste 34 Sudoeste 0 -- -- 76
2019-11-30 15:00:00 17.4 23 Sudoeste 31 Sudoeste 0 -- -- 76
2019-11-30 14:00:00 16.4 22 Sudoeste 30 Sudoeste 0 -- -- 84
2019-11-30 13:00:00 15.6 16 Sudoeste 22 Sudoeste 0 -- -- 90
2019-11-30 12:00:00 14.6 10 Sur 15 Sur 0 -- -- 91
2019-11-30 11:00:00 13.6 11 Sur 14 Sur 0 -- -- 94
2019-11-30 10:00:00 12.9 6 Sur 12 Sur 0 -- -- 94
2019-11-30 09:00:00 12.5 9 Sur 14 Sur 0 -- -- 95
2019-11-30 08:00:00 12.6 7 Sur 11 Sudoeste 0 -- -- 94
2019-11-30 07:00:00 12.8 7 Sudoeste 10 Sudeste 0 -- -- 95
2019-11-30 06:00:00 12.6 6 Sur 9 Sudeste 0 -- -- 96
2019-11-30 05:00:00 12.9 5 Sur 7 Sur 0 -- -- 94
2019-11-30 04:00:00 13.3 4 Sudeste 6 Sudeste 0 -- -- 92
2019-11-30 03:00:00 13.7 4 Sudeste 6 Sudeste 0 -- -- 92
2019-11-30 02:00:00 14.6 3 Sur 6 Sur 0 -- -- 91
2019-11-30 01:00:00 15 3 Sur 7 Noroeste 0 -- -- 90
2019-11-30 00:00:00 15.1 0 Calma -- -- 0 -- -- 89
2019-11-29 23:00:00 15.3 0 Calma 4 Oeste 0 -- -- 86
2019-11-29 22:00:00 15.5 2 Oeste 5 Oeste 0 -- -- 85
2019-11-29 21:00:00 15.9 0 Calma 4 Sur 0 -- -- 82
2019-11-29 20:00:00 16.2 4 Sur 8 Sur 0 -- -- 80
2019-11-29 19:00:00 16.5 4 Sudoeste 11 Sudoeste 0 -- -- 81
2019-11-29 18:00:00 17 9 Sudoeste 14 Sudoeste 0 -- -- 76
2019-11-29 17:00:00 17.6 9 Sudoeste 15 Sudoeste 0 -- -- 72
2019-11-29 16:00:00 18 10 Sudoeste 18 Sudoeste 0 -- -- 69
2019-11-29 15:00:00 17.9 14 Sudoeste 22 Sudoeste 0 -- -- 71
2019-11-29 14:00:00 18.1 15 Sudoeste 22 Sudoeste 0 -- -- 73
2019-11-29 13:00:00 16.6 10 Sudoeste 13 Sudoeste 0 -- -- 81
2019-11-29 12:00:00 16.1 10 Sudoeste 14 Sudoeste 0 -- -- 84
2019-11-29 11:00:00 15.4 8 Sudoeste 13 Sur 0 -- -- 89
2019-11-29 10:00:00 14.2 8 Sur 10 Sur 0 -- -- 94
2019-11-29 09:00:00 13.7 3 Sur 17 Sur 0 -- -- 95
2019-11-29 08:00:00 13.5 9 Sur 15 Sur 0 -- -- 96
2019-11-29 07:00:00 13.4 8 Sur 12 Sur 0 -- -- 96
2019-11-29 06:00:00 13.4 10 Sur 12 Sur 0 -- -- 97
2019-11-29 05:00:00 13.4 6 Sur 12 Sur 0 -- -- 98
2019-11-29 04:00:00 13.3 8 Sur 17 Sur 0 -- -- 98
2019-11-29 03:00:00 13.4 10 Sur 14 Sur 0 -- -- 98
2019-11-29 02:00:00 12.7 4 Sur 16 Sur 0 -- -- 97
2019-11-29 01:00:00 12.9 7 Sur 13 Sudeste 0 -- -- 96
2019-11-29 00:00:00 13.3 5 Sur 10 Sudoeste 0 -- -- 95
2019-11-28 23:00:00 13.8 4 Sudoeste 11 Sudoeste 0 -- -- 93
2019-11-28 22:00:00 14.1 0 Calma 10 Oeste 0 -- -- 90
2019-11-28 21:00:00 15.1 8 Oeste 18 Oeste 0 -- -- 85
2019-11-28 20:00:00 15.9 9 Oeste 15 Oeste 0 -- -- 83
2019-11-28 19:00:00 16.2 8 Oeste 13 Oeste 0 -- -- 81
2019-11-28 18:00:00 16.4 9 Sudoeste 15 Sudoeste 0 -- -- 83
2019-11-28 17:00:00 16.5 12 Sudoeste 21 Sudoeste 0 -- -- 77
2019-11-28 16:00:00 16.5 13 Sudoeste 21 Sudoeste 0 -- -- 78
2019-11-28 15:00:00 16.4 14 Sudoeste 27 Sudoeste 0 -- -- 80
2019-11-28 14:00:00 15.9 18 Sudoeste 28 Sudoeste 0 -- -- 85
2019-11-28 13:00:00 15.3 21 Sudoeste 30 Sudoeste 0 -- -- 87
2019-11-28 12:00:00 14.2 16 Sudoeste 24 Sudoeste 0 -- -- 93
2019-11-28 11:00:00 13.7 12 Sudoeste 18 Sur 0 -- -- 95
2019-11-28 10:00:00 12.5 10 Sur 15 Sur 0 -- -- 99
2019-11-28 09:00:00 11.9 9 Sur 14 Sur 0 -- -- 99
2019-11-28 08:00:00 11.6 9 Sur 16 Sur 0 -- -- 99
2019-11-28 07:00:00 11.7 9 Sur 13 Sur 0 -- -- 99
2019-11-28 06:00:00 11.7 5 Sudoeste 13 Oeste 0 -- -- 98
2019-11-28 05:00:00 12.1 6 Oeste 13 Oeste 0 -- -- 96
2019-11-28 04:00:00 12.1 6 Sudoeste 9 Sudoeste 0 -- -- 96
2019-11-28 03:00:00 12 5 Sur 8 Sur 0 -- -- 94
2019-11-28 02:00:00 12.5 4 Sudoeste 8 Sudoeste 0 -- -- 93
2019-11-28 01:00:00 12.9 6 Sudoeste 10 Sudoeste 0 -- -- 90
2019-11-28 00:00:00 13 6 Sudoeste 16 Oeste 0 -- -- 90
2019-11-27 23:00:00 12.9 4 Oeste 15 Sudoeste 0 -- -- 91
2019-11-27 22:00:00 13.7 11 Sudoeste 22 Oeste 0 -- -- 84
2019-11-27 21:00:00 14.1 13 Oeste 19 Oeste 0 -- -- 80
2019-11-27 20:00:00 14.1 8 Oeste 21 Noroeste 0 -- -- 80
2019-11-27 19:00:00 14.9 12 Oeste 18 Oeste 0 -- -- 75
2019-11-27 18:00:00 15.9 12 Oeste 27 Oeste 0 -- -- 69
2019-11-27 17:00:00 17.3 20 Oeste 33 Oeste 0 -- -- 64
2019-11-27 16:00:00 17 12 Oeste 32 Oeste 0 -- -- 68
2019-11-27 15:00:00 17.1 13 Noroeste 25 Oeste 0 -- -- 66
2019-11-27 14:00:00 15.9 12 Oeste 21 Oeste 0 -- -- 70
2019-11-27 06:00:00 -- -- -- -- -- -- -- -- --
2019-11-27 05:00:00 12.7 2 Sudoeste 10 Noroeste 0 -- -- 97
2019-11-27 04:00:00 13.1 9 Noroeste 16 Oeste 0 -- -- 96
2019-11-27 03:00:00 13.2 6 Noroeste 20 Oeste 0 -- -- 95
2019-11-27 02:00:00 14.1 13 Oeste 26 Oeste 0.2 -- -- 93
2019-11-27 01:00:00 14.3 21 Oeste 37 Oeste 0 -- -- 96
2019-11-27 00:00:00 14 11 Sudoeste 21 Sudoeste 0 -- -- 96
2019-11-26 23:00:00 14.4 14 Sudoeste 19 Sudoeste 0 -- -- 95
2019-11-26 22:00:00 14.7 11 Oeste 20 Oeste 0 -- -- 94
2019-11-26 21:00:00 15.2 14 Sudoeste 25 Oeste 0 -- -- 94
2019-11-26 20:00:00 15.7 15 Oeste 36 Oeste 0.6 -- -- 95
2019-11-26 19:00:00 15.7 25 Sudoeste 37 Sudoeste 1 -- -- 98
2019-11-26 18:00:00 15.5 24 Sudoeste 39 Sudoeste 3 -- -- 96
2019-11-26 17:00:00 18.1 23 Sudoeste 44 Sudoeste 0 -- -- 76
2019-11-26 16:00:00 18.5 23 Sudoeste 36 Sudoeste 0 -- -- 75
2019-11-26 15:00:00 18.4 24 Sudoeste 39 Sudoeste 0 -- -- 76
2019-11-26 14:00:00 18.2 28 Sudoeste 41 Sudoeste 0 -- -- 79
2019-11-26 13:00:00 17.8 26 Sudoeste 37 Sudoeste 0 -- -- 84
2019-11-26 12:00:00 16.6 20 Sudoeste 31 Sudoeste 0 -- -- 93
2019-11-26 11:00:00 16.1 22 Sudoeste 31 Sur 0 -- -- 95
2019-11-26 10:00:00 15.7 18 Sudoeste 27 Sudoeste 0 -- -- 98
2019-11-26 09:00:00 15 16 Sur 24 Sudoeste 0 -- -- 99
2019-11-26 08:00:00 14.9 15 Sudoeste 28 Sur 0 -- -- 99
2019-11-26 07:00:00 15 14 Sudoeste 25 Sur 0.2 -- -- 99
2019-11-26 06:00:00 14.9 14 Sudoeste 20 Sudoeste 0 -- -- 99
2019-11-26 05:00:00 14.9 12 Sudoeste 20 Sudoeste 0 -- -- 99
2019-11-26 04:00:00 14.9 13 Sur 19 Sur 0.2 -- -- 99
2019-11-26 03:00:00 14.6 9 Sur 14 Sur 0 -- -- 98
2019-11-26 02:00:00 14.5 9 Sudoeste 14 Sudoeste 0 -- -- 97
2019-11-26 01:00:00 14.1 4 Sudeste 9 Sur 0 -- -- 95
2019-11-26 00:00:00 13.9 7 Sur 9 Sur 0 -- -- 93
2019-11-25 23:00:00 14.1 5 Sur 9 Oeste 0 -- -- 93
2019-11-25 22:00:00 13.9 5 Noroeste 9 Oeste 0 -- -- 92
2019-11-25 21:00:00 14.4 7 Noroeste 12 Oeste 0 -- -- 89
2019-11-25 20:00:00 15.4 7 Oeste 18 Oeste 0 -- -- 86
2019-11-25 19:00:00 16.4 11 Oeste 19 Oeste 0 -- -- 81
2019-11-25 18:00:00 17.7 13 Oeste 22 Oeste 0 -- -- 75
2019-11-25 17:00:00 18.5 10 Oeste 22 Oeste 0 -- -- 74
2019-11-25 16:00:00 18.7 17 Oeste 31 Oeste 0 -- -- 70
2019-11-25 15:00:00 19.7 20 Oeste 35 Oeste 0 -- -- 66
2019-11-25 14:00:00 19.3 17 Oeste 24 Oeste 0 -- -- 71
2019-11-25 13:00:00 18.6 15 Oeste 20 Oeste 0 -- -- 76
2019-11-25 12:00:00 17.5 9 Oeste 19 Oeste 0 -- -- 83
2019-11-25 11:00:00 16.5 13 Oeste 22 Sudoeste 0 -- -- 95
2019-11-25 10:00:00 15.6 15 Sudoeste 24 Sudoeste 0 -- -- 100
2019-11-25 09:00:00 14.7 18 Sudoeste 26 Sudoeste 0.2 -- -- 99
2019-11-25 08:00:00 14.6 20 Sudoeste 29 Sudoeste 0.2 -- -- 99
2019-11-25 07:00:00 14.3 20 Sudoeste 32 Sudoeste 0.2 -- -- 98
2019-11-25 06:00:00 14.2 21 Sudoeste 34 Sudoeste 0.2 -- -- 97
2019-11-25 05:00:00 14.1 21 Sudoeste 33 Sudoeste 0 -- -- 97
2019-11-25 04:00:00 13.9 23 Sudoeste 34 Sudoeste 0 -- -- 96
2019-11-25 03:00:00 13.6 19 Sudoeste 28 Sudoeste 0 -- -- 95
2019-11-25 02:00:00 13 17 Sudoeste 27 Sur 0 -- -- 95
2019-11-25 01:00:00 12.8 18 Sudoeste 28 Sur 0 -- -- 96
2019-11-25 00:00:00 12.6 16 Sudoeste 28 Sudoeste 0 -- -- 96
2019-11-24 23:00:00 13.1 21 Sudoeste 36 Sudoeste 0 -- -- 93
2019-11-24 22:00:00 13.9 17 Sudoeste 23 Sudoeste 0 -- -- 85
2019-11-24 21:00:00 14 10 Sudoeste 15 Sudoeste 0 -- -- 84
2019-11-24 20:00:00 14 10 Sudoeste 18 Sur 0 -- -- 84
2019-11-24 19:00:00 14.3 11 Sur 17 Sur 0 -- -- 80
2019-11-24 18:00:00 14.8 9 Sudoeste 19 Oeste 0 -- -- 78
2019-11-24 17:00:00 15.1 15 Oeste 23 Oeste 0 -- -- 75
2019-11-24 16:00:00 15.3 12 Sudoeste 22 Sudoeste 0 -- -- 71
2019-11-24 15:00:00 15.3 14 Sudoeste 23 Sur 0 -- -- 71
2019-11-24 14:00:00 15.2 16 Sudoeste 21 Sudoeste 0 -- -- 72
2019-11-24 13:00:00 13.8 10 Sudoeste 15 Sudoeste 0 -- -- 76
2019-11-24 12:00:00 12.3 7 Sudoeste 12 Sudoeste 0 -- -- 84
2019-11-24 11:00:00 10.2 9 Sur 13 Sur 0 -- -- 90
2019-11-24 10:00:00 8.3 6 Sur 10 Sur 0 -- -- 97
2019-11-24 09:00:00 6.1 6 Sudeste 9 Sudeste 0 -- -- 98
2019-11-24 08:00:00 5.4 6 Sudeste 12 Sudeste 0 -- -- 97
2019-11-24 07:00:00 5.9 8 Sudeste 9 Sudeste 0 -- -- 97
2019-11-24 06:00:00 5.7 9 Sudeste 10 Sudeste 0 -- -- 97
2019-11-24 05:00:00 6.2 4 Sudeste 6 Sudeste 0 -- -- 96
2019-11-24 04:00:00 6.2 6 Sudeste 9 Sudeste 0 -- -- 95
2019-11-24 03:00:00 6.9 4 Sudeste 8 Sudeste 0 -- -- 92
2019-11-24 02:00:00 7.8 0 Calma 4 Este 0 -- -- 91
2019-11-24 01:00:00 8.7 3 Norte 7 Norte 0 -- -- 87
2019-11-24 00:00:00 8.8 4 Norte 7 Norte 0 -- -- 87
2019-11-23 23:00:00 9.3 6 Noroeste 13 Noroeste 0 -- -- 85
2019-11-23 22:00:00 9.9 8 Noroeste 14 Noroeste 0 -- -- 83
2019-11-23 21:00:00 10.4 9 Noroeste 15 Noroeste 0 -- -- 81
2019-11-23 20:00:00 11.3 7 Noroeste 18 Noroeste 0 -- -- 77
2019-11-23 19:00:00 12.3 11 Noroeste 29 Oeste 0 -- -- 73
2019-11-23 18:00:00 13.7 13 Noroeste 31 Noroeste 0 -- -- 64
2019-11-23 17:00:00 14.8 20 Noroeste 32 Noroeste 0 -- -- 62
2019-11-23 16:00:00 14.2 19 Noroeste 47 Noroeste 0 -- -- 68
2019-11-23 15:00:00 15.5 20 Noroeste 40 Noroeste 0 -- -- 57
2019-11-23 14:00:00 14.9 22 Norte 40 Noroeste 0 -- -- 62
2019-11-23 13:00:00 14.9 24 Noroeste 42 Noroeste 0 -- -- 63
2019-11-23 12:00:00 13.9 26 Norte 41 Noroeste 0 -- -- 63
2019-11-23 11:00:00 12.7 18 Noroeste 33 Noroeste 0 -- -- 77
2019-11-23 10:00:00 11.1 17 Noroeste 31 Oeste 0 -- -- 87
2019-11-23 09:00:00 10.3 16 Oeste 24 Oeste 0 -- -- 87
2019-11-23 08:00:00 10.4 12 Oeste 20 Oeste 0 -- -- 86
2019-11-23 07:00:00 10.5 9 Oeste 18 Oeste 0 -- -- 87
2019-11-23 06:00:00 10.7 9 Noroeste 29 Noroeste 0 -- -- 86
2019-11-23 05:00:00 11.3 23 Noroeste 37 Noroeste 0 -- -- 83
2019-11-23 04:00:00 11.6 19 Noroeste 37 Noroeste 0 -- -- 86
2019-11-23 03:00:00 11.8 23 Noroeste 49 Noroeste 0 -- -- 83
2019-11-23 02:00:00 12.5 40 Noroeste 63 Noroeste 0 -- -- 79
2019-11-23 01:00:00 13 40 Noroeste 66 Noroeste 0 -- -- 77
2019-11-23 00:00:00 13.1 34 Oeste 54 Oeste 0 -- -- 84
2019-11-22 23:00:00 13.2 22 Oeste 35 Oeste 0 -- -- 78
2019-11-22 22:00:00 13.3 19 Oeste 32 Oeste 0 -- -- 80
2019-11-22 21:00:00 13.8 18 Oeste 35 Oeste 0 -- -- 82
2019-11-22 20:00:00 14.3 21 Oeste 35 Oeste 0 -- -- 82
2019-11-22 19:00:00 15 21 Oeste 35 Sudoeste 0 -- -- 75
2019-11-22 18:00:00 15.6 22 Oeste 42 Noroeste 0 -- -- 70
2019-11-22 17:00:00 16.3 24 Noroeste 52 Oeste 0 -- -- 68
2019-11-22 16:00:00 17 26 Noroeste 45 Noroeste 0 -- -- 75
2019-11-22 15:00:00 15.6 21 Oeste 45 Sudoeste 11.6 -- -- 94
2019-11-22 14:00:00 16.2 27 Oeste 48 Sudoeste 2.6 -- -- 98
2019-11-22 13:00:00 15.9 29 Sudoeste 51 Sudoeste 1.2 -- -- 98
2019-11-22 12:00:00 14.9 38 Sudoeste 51 Sudoeste 0.4 -- -- 98
2019-11-22 11:00:00 14.3 33 Sudoeste 59 Sudoeste 2.4 -- -- 97
2019-11-22 10:00:00 14.1 40 Sudoeste 65 Sudoeste 1.2 -- -- 96
2019-11-22 09:00:00 13.6 29 Sudoeste 50 Sudoeste 0.6 -- -- 96
2019-11-22 08:00:00 13.2 28 Sudoeste 43 Sur 0.2 -- -- 96
2019-11-22 07:00:00 12.4 25 Sur 35 Sur 0.2 -- -- 97
2019-11-22 06:00:00 12.1 22 Sur 35 Sur 1.8 -- -- 97
2019-11-22 05:00:00 11.9 19 Sur 27 Sur 0.6 -- -- 98
2019-11-22 04:00:00 11.6 17 Sur 24 Sur 0.6 -- -- 98
2019-11-22 03:00:00 11.6 12 Sur 18 Sur 0.2 -- -- 97
2019-11-22 02:00:00 11.3 7 Sudoeste 17 Sur 0 -- -- 98
2019-11-22 01:00:00 11.2 7 Sur 15 Sur 0 -- -- 98
2019-11-22 00:00:00 11 8 Sur 11 Sur 0 -- -- 98
2019-11-21 23:00:00 11.5 6 Sur 9 Sudeste 0 -- -- 97
2019-11-21 22:00:00 11.7 6 Sudeste 9 Sur 0 -- -- 96
2019-11-21 21:00:00 12.5 7 Sur 11 Sur 0 -- -- 93
2019-11-21 20:00:00 13.4 4 Sudoeste 13 Sudoeste 0 -- -- 90
2019-11-21 19:00:00 14.2 5 Sudoeste 8 Sur 0 -- -- 85
2019-11-21 18:00:00 15 4 Sur 7 Sudoeste 0 -- -- 80
2019-11-21 17:00:00 15.1 0 Calma 21 Sudoeste 0 -- -- 82
2019-11-21 16:00:00 16.2 13 Sudoeste 18 Sur 0 -- -- 79
2019-11-21 15:00:00 15.6 13 Sudoeste 22 Sudoeste 0 -- -- 82
2019-11-21 14:00:00 13.9 13 Sudoeste 19 Sudoeste 0 -- -- 91
2019-11-21 13:00:00 13.6 15 Sudoeste 23 Sudoeste 0.2 -- -- 94
2019-11-21 12:00:00 13.1 11 Sudoeste 19 Sudoeste 0.2 -- -- 96
2019-11-21 11:00:00 12.8 12 Sudoeste 17 Sudoeste 0 -- -- 97
2019-11-21 10:00:00 12.4 10 Sudoeste 16 Sudoeste 0.2 -- -- 97
2019-11-21 09:00:00 12.3 12 Sudoeste 21 Sudoeste 0.2 -- -- 97
2019-11-21 08:00:00 12.3 15 Sudoeste 24 Oeste 0 -- -- 96
2019-11-21 07:00:00 11.7 13 Sudoeste 22 Sudoeste 0 -- -- 97
2019-11-21 06:00:00 11.1 9 Sur 16 Sur 0 -- -- 96
2019-11-21 05:00:00 11.2 10 Sur 15 Sur 0 -- -- 96
2019-11-21 04:00:00 11 9 Sur 19 Sur 0 -- -- 96
2019-11-21 03:00:00 11.5 15 Sur 21 Sur 0 -- -- 97
2019-11-21 02:00:00 11.3 11 Sur 21 Sur 0 -- -- 96
2019-11-21 01:00:00 11.2 7 Sur 16 Sur 0 -- -- 96
2019-11-21 00:00:00 10.9 10 Sudoeste 19 Sudoeste 0 -- -- 96
2019-11-20 23:00:00 11 12 Sur 17 Sur 0 -- -- 94
2019-11-20 22:00:00 11.9 12 Sudoeste 17 Sudoeste 0 -- -- 91
2019-11-20 21:00:00 11.9 6 Sudoeste 12 Sudoeste 0 -- -- 87
2019-11-20 20:00:00 13 9 Noroeste 23 Oeste 0 -- -- 84
2019-11-20 19:00:00 13.6 17 Sudoeste 28 Sudoeste 0 -- -- 79
2019-11-20 18:00:00 14.4 18 Sudoeste 26 Sudoeste -- -- -- 73
2019-11-20 17:00:00 15.4 14 Oeste 27 Oeste 0 -- -- 65
2019-11-20 16:00:00 15.3 11 Oeste 27 Oeste 0 -- -- 60
2019-11-20 15:00:00 15.3 16 Oeste 25 Sudoeste 0 -- -- 67
2019-11-20 14:00:00 13.9 20 Sudoeste 31 Sudoeste 0 -- -- 83
2019-11-20 13:00:00 12.9 17 Sudoeste 28 Sur 0 -- -- 89
2019-11-20 12:00:00 11.7 21 Sur 31 Sur 0 -- -- 93
2019-11-20 11:00:00 9.7 18 Sur 35 Sur 0 -- -- 93
2019-11-20 10:00:00 9 18 Sudeste 31 Sur 0.2 -- -- 93
2019-11-20 09:00:00 8.9 8 Sur 34 Sudeste 0.6 -- -- 94
2019-11-20 08:00:00 8.1 17 Sudeste 26 Sudeste 6.6 -- -- 96
2019-11-20 07:00:00 8.7 5 Nordeste 8 Este 0.4 -- -- 92
2019-11-20 06:00:00 8.8 0 Calma 18 Sudeste 0 -- -- 90
2019-11-20 05:00:00 9.1 10 Sudeste 19 Sudeste 1.2 -- -- 87
2019-11-20 04:00:00 10.1 4 Sudoeste 12 Sur 0 -- -- 81
2019-11-20 03:00:00 10.1 4 Sur 13 Sur 0 -- -- 80
2019-11-20 02:00:00 10.4 3 Sur 14 Sur 0 -- -- 76
2019-11-20 01:00:00 9.8 7 Sudeste 11 Sudeste 0 -- -- 77
2019-11-20 00:00:00 9.8 7 Sur 13 Sudeste 0 -- -- 73
2019-11-19 23:00:00 9.2 5 Sudeste 10 Sudeste 0 -- -- 76
2019-11-19 22:00:00 9.2 5 Sudeste 9 Sudeste 0 -- -- 78
2019-11-19 21:00:00 9.6 6 Sudeste 8 Sudeste 0 -- -- 76
2019-11-19 20:00:00 10.2 3 Sudeste 4 Sudeste 0 -- -- 70
2019-11-19 19:00:00 11 0 Calma 8 Oeste 0 -- -- 68
2019-11-19 18:00:00 11.8 4 Oeste 12 Noroeste 0 -- -- 64
2019-11-19 17:00:00 12.1 9 Sudoeste 12 Sudoeste 0 -- -- 61
2019-11-19 16:00:00 11.9 6 Sudoeste 10 Sudoeste 0 -- -- 72
2019-11-19 15:00:00 11.6 4 Sur 7 Sur 0 -- -- 77
2019-11-19 14:00:00 10.9 5 Oeste 13 Oeste 0 -- -- 83
2019-11-19 13:00:00 10.5 7 Oeste 12 Oeste 0 -- -- 83
2019-11-19 12:00:00 9.8 7 Sur 11 Sudeste 0 -- -- 86
2019-11-19 11:00:00 8.3 4 Sur 7 Sur 0 -- -- 91
2019-11-19 10:00:00 6.6 3 Oeste 12 Sur 0 -- -- 94
2019-11-19 09:00:00 5.7 8 Sur 12 Sudeste 0 -- -- 96
2019-11-19 08:00:00 5.2 6 Sur 9 Sur 0 -- -- 95
2019-11-19 07:00:00 5 5 Sudeste 10 Sudeste 0 -- -- 96
2019-11-19 06:00:00 4.6 7 Sudeste 10 Sudeste 0 -- -- 95
2019-11-19 05:00:00 4.8 2 Sudeste 5 Sudeste 0 -- -- 94
2019-11-19 04:00:00 5.1 0 Calma 7 Este 0 -- -- 94
2019-11-19 03:00:00 6.2 5 Este 6 Este 0 -- -- 92
2019-11-19 02:00:00 6.4 5 Sudeste 8 Este 0 -- -- 90
2019-11-19 01:00:00 7 6 Sudeste 10 Sudeste 0 -- -- 88
2019-11-19 00:00:00 7.8 5 Este 6 Este 0 -- -- 85
2019-11-18 23:00:00 8.8 2 Nordeste 10 Norte 0 -- -- 81
2019-11-18 22:00:00 9.7 9 Norte 19 Norte 0 -- -- 77
2019-11-18 21:00:00 10 10 Norte 19 Norte 0 -- -- 75
2019-11-18 20:00:00 10.7 8 Norte 11 Norte 0 -- -- 72
2019-11-18 19:00:00 11.7 5 Norte 15 Norte 0 -- -- 66
2019-11-18 18:00:00 13.7 10 Norte 17 Norte 0 -- -- 58
2019-11-18 17:00:00 15 10 Norte 22 Norte 0 -- -- 52
2019-11-18 16:00:00 15 11 Norte 21 Norte 0 -- -- 54
2019-11-18 15:00:00 14.8 9 Norte 19 Norte 0 -- -- 58
2019-11-18 14:00:00 14.2 9 Nordeste 19 Nordeste 0 -- -- 61
2019-11-18 13:00:00 13.2 5 Nordeste 18 Oeste 0 -- -- 63
2019-11-18 12:00:00 11.4 3 Norte 14 Norte 0 -- -- 77
2019-11-18 11:00:00 10.3 7 Norte 19 Norte 0 -- -- 83
2019-11-18 10:00:00 9.1 11 Norte 23 Norte 0 -- -- 88
2019-11-18 09:00:00 7.9 14 Norte 26 Norte 0 -- -- 92
2019-11-18 08:00:00 7.5 13 Norte 25 Norte 0 -- -- 93
2019-11-18 07:00:00 6.9 4 Norte 17 Norte 0 -- -- 93
2019-11-18 06:00:00 7.3 7 Norte 12 Norte 0 -- -- 92
2019-11-18 05:00:00 7.7 10 Norte 20 Noroeste 0 -- -- 89
2019-11-18 04:00:00 8 4 Nordeste 27 Norte 0 -- -- 86
2019-11-18 03:00:00 8.3 12 Norte 31 Norte 0 -- -- 86
2019-11-18 02:00:00 8.8 17 Norte 35 Norte 0 -- -- 83
2019-11-18 01:00:00 9.6 18 Norte 31 Norte 0 -- -- 77
2019-11-18 00:00:00 11.3 19 Norte 37 Norte 0.2 -- -- 84
2019-11-17 23:00:00 13.1 18 Noroeste 29 Noroeste 0.4 -- -- 94
2019-11-17 22:00:00 13.6 17 Oeste 28 Oeste 2 -- -- 96
2019-11-17 21:00:00 13.5 16 Oeste 27 Oeste 0 -- -- 96
2019-11-17 20:00:00 13.7 16 Oeste 24 Oeste 0 -- -- 94
2019-11-17 19:00:00 13.6 16 Oeste 34 Oeste 0.8 -- -- 93
2019-11-17 18:00:00 14.1 17 Noroeste 33 Oeste 1.4 -- -- 92
2019-11-17 17:00:00 15 17 Oeste 30 Oeste 0 -- -- 92
2019-11-17 16:00:00 14.7 19 Oeste 35 Oeste 0.6 -- -- 95
2019-11-17 15:00:00 15.7 21 Oeste 38 Oeste 0 -- -- 88
2019-11-17 14:00:00 15.3 23 Oeste 36 Oeste 0 -- -- 88
2019-11-17 13:00:00 14.5 18 Oeste 28 Oeste 0 -- -- 96
2019-11-17 12:00:00 13.1 16 Sudoeste 22 Sudoeste 0.2 -- -- 98
2019-11-17 11:00:00 11.9 15 Sudoeste 21 Sudoeste 0 -- -- 99
2019-11-17 10:00:00 10.3 11 Sudoeste 17 Sudoeste 0 -- -- 99
2019-11-17 09:00:00 8.9 8 Sur 22 Sur 0 -- -- 98
2019-11-17 08:00:00 8.2 12 Sur 20 Sur 0 -- -- 98
2019-11-17 07:00:00 7.7 13 Sur 23 Sur 0 -- -- 97
2019-11-17 06:00:00 7.1 14 Sur 21 Sur 0.2 -- -- 96
2019-11-17 05:00:00 7.6 13 Sur 18 Sur 0.2 -- -- 93
2019-11-17 04:00:00 8.2 6 Sur 10 Sur 0 -- -- 84
2019-11-17 03:00:00 8.5 4 Sur 9 Sur 0 -- -- 82
2019-11-17 02:00:00 7.4 6 Sudeste 8 Sudeste 0 -- -- 80
2019-11-17 01:00:00 7.6 2 Sur 4 Oeste 0 -- -- 78
2019-11-17 00:00:00 7.5 0 Calma 8 Norte 0 -- -- 77
2019-11-16 23:00:00 7.6 7 Norte 11 Norte 0 -- -- 75
2019-11-16 22:00:00 8.1 6 Noroeste 9 Noroeste 0 -- -- 71
2019-11-16 21:00:00 8.8 4 Noroeste 9 Noroeste 0 -- -- 65
2019-11-16 20:00:00 10.3 5 Noroeste 11 Norte 0 -- -- 58
2019-11-16 19:00:00 11 7 Norte 24 Norte 0 -- -- 55
2019-11-16 18:00:00 13.2 15 Noroeste 27 Noroeste 0 -- -- 46
2019-11-16 17:00:00 14.3 14 Noroeste 34 Oeste 0 -- -- 43
2019-11-16 16:00:00 14.5 15 Noroeste 26 Oeste 0 -- -- 42
2019-11-16 15:00:00 13.9 12 Noroeste 20 Noroeste 0 -- -- 43
2019-11-16 14:00:00 13.1 10 Sudoeste 18 Sudoeste 0 -- -- 50
2019-11-16 13:00:00 11.9 6 Oeste 13 Nordeste 0 -- -- 54
2019-11-16 12:00:00 9.8 3 Oeste 12 Sur 0 -- -- 63
2019-11-16 11:00:00 7.5 3 Noroeste 8 Noroeste 0 -- -- 72
2019-11-16 10:00:00 5.5 3 Este 5 Este 0 -- -- 82
2019-11-16 09:00:00 2.6 0 Calma 6 Sudeste 0 -- -- 93
2019-11-16 08:00:00 2.6 2 Sudeste 14 Norte 0 -- -- 89
2019-11-16 07:00:00 3.4 8 Nordeste 17 Norte 0 -- -- 89
2019-11-16 06:00:00 3.9 10 Norte 14 Norte 0 -- -- 87
2019-11-16 05:00:00 4.4 7 Norte 21 Norte 0 -- -- 86
2019-11-16 04:00:00 4.8 13 Norte 22 Norte 0 -- -- 84
2019-11-16 03:00:00 5.1 13 Norte 21 Norte 0 -- -- 83
2019-11-16 02:00:00 4.7 6 Norte 12 Norte 0 -- -- 85
2019-11-16 01:00:00 5.5 8 Norte 18 Noroeste 0 -- -- 81
2019-11-16 00:00:00 6.2 10 Norte 21 Norte 0 -- -- 75
2019-11-15 23:00:00 6.8 9 Norte 23 Noroeste 0 -- -- 70
2019-11-15 22:00:00 7.7 13 Norte 30 Norte 0 -- -- 64
2019-11-15 21:00:00 8.4 18 Norte 32 Noroeste 0 -- -- 58
2019-11-15 20:00:00 9.1 19 Noroeste 30 Norte 0 -- -- 57
2019-11-15 19:00:00 9.9 19 Norte 41 Norte 0 -- -- 52
2019-11-15 18:00:00 11.2 28 Norte 43 Norte 0 -- -- 46
2019-11-15 17:00:00 12.3 25 Norte 47 Noroeste 0 -- -- 42
2019-11-15 16:00:00 12.8 22 Norte 40 Norte 0 -- -- 43
2019-11-15 15:00:00 12.8 26 Norte 43 Noroeste 0 -- -- 44
2019-11-15 14:00:00 12.4 26 Norte 41 Norte 0 -- -- 46
2019-11-15 13:00:00 11.8 23 Norte 43 Noroeste 0 -- -- 49
2019-11-15 12:00:00 10.9 25 Norte 45 Norte 0 -- -- 56
2019-11-15 11:00:00 9.6 28 Norte 45 Norte 0 -- -- 60
2019-11-15 10:00:00 8 10 Norte 23 Noroeste 0 -- -- 74
2019-11-15 09:00:00 6.8 13 Noroeste 25 Noroeste 0 -- -- 78
2019-11-15 08:00:00 7.2 10 Noroeste 21 Noroeste 0 -- -- 77
2019-11-15 07:00:00 7.6 9 Noroeste 15 Oeste 0 -- -- 79
2019-11-15 06:00:00 7.5 4 Oeste 19 Noroeste 0 -- -- 83
2019-11-15 05:00:00 7.6 11 Noroeste 26 Noroeste 0 -- -- 82
2019-11-15 04:00:00 7.5 10 Noroeste 19 Noroeste 0 -- -- 79
2019-11-15 03:00:00 7.4 6 Noroeste 18 Oeste 0 -- -- 83
2019-11-15 02:00:00 7.4 3 Oeste 17 Norte 0 -- -- 81
2019-11-15 01:00:00 7.9 11 Noroeste 22 Noroeste 0 -- -- 79
2019-11-15 00:00:00 8 13 Noroeste 24 Noroeste 0 -- -- 78